Airfield :
LOGIN :

Register | Disclaimer

   EN    FR    IT 

 










Legend :    VFR   Marginal VFR   IFR   Intensive IFR   Very Intensive IFR
Visi :
Ceiling :
>= 8 km
>= 3000ft
5 to 8 km
1000 to 3000 ft
1500m to 5 km
500 to 1000 ft
800 to 1500m
200 to 500 ft
< 800m
< 200 ft
Symbols :   Thunderstorms  Fog  Heavy snow  Heavy precipitations  Wind > 20 kt
SIGMETs :     Misc.  Thunderstorms  Icing  Turbulence  Mountain Waves  Volcanic Ashes






- Airport Elevation : 468 ft
- IATA code : GRO


LEGE - Girona Costa Brava

CURRENT METAR :
  • 100700Z 13001KT 4000 R02/1400U BCFG FEW006 09/09 Q1023

EXPIRED METARs :
  • 100642Z 00000KT 6000 1000N BCFG FEW006 08/08 Q1023
  • 100630Z 00000KT 6000 1800N BCFG FEW006 06/06 Q1022
  • 100600Z 07001KT 6000 BCFG FEW006 05/05 Q1022
  • 100530Z 00000KT 6000 BCFG FEW009 04/04 Q1022
  • 100500Z 05003KT 7000 BCFG FEW009 05/05 Q1021
  • 100430Z VRB01KT 7000 BCFG FEW009 05/05 Q1021

TAF TAF LEGE
Valid from the 10 at 06:00 until the 11 at 06:00 UTC


100500Z 1006/1106 VRB03KT 9999 FEW040 TX21/1012Z TN07/1006Z
PROB30
TEMPO 1006/1008 3000 BR BKN010
BECMG 1010/1012 18010KT
BECMG 1018/1020 VRB03KT
PROB40
TEMPO 1021/1106 3000 BR BKN005
PROB40
TEMPO 1021/1106 0300 BCFG BKN005



MET'MAP, your aeronautical weather chart ! - Copyright ORBIFLY December 2007 - Disclaimer

ORBIFLY MET'MAP TEAM :

Programming & Development : Alexandra Zaïnal
Concept & original design : Baudouin d'Aumeries
Assistance for programming : Marc-Olivier Méhu
Technical & hardware support : Manuel Goepfert

Contact : metmap@orbifly.com




SOURCES & CREDITS :

   NOAA